createdAt,value
2019-03-17T00:02:26.223Z,3.48
2019-03-17T00:04:54.491Z,3.44
2019-03-17T00:07:22.796Z,3.44
2019-03-17T00:09:51.135Z,3.45
2019-03-17T00:12:19.395Z,3.45
2019-03-17T00:14:47.664Z,3.47
2019-03-17T00:17:16.025Z,3.48
2019-03-17T00:19:44.418Z,3.49
2019-03-17T00:22:12.735Z,3.49
2019-03-17T00:24:41.103Z,3.44
2019-03-17T00:27:09.363Z,3.39
2019-03-17T00:29:37.649Z,3.36
2019-03-17T00:32:05.973Z,3.32
2019-03-17T00:34:43.672Z,3.25
2019-03-17T00:37:04.351Z,3.18
2019-03-17T00:39:32.617Z,3.13
2019-03-17T00:42:16.180Z,3.13
2019-03-17T00:44:44.622Z,3.13
2019-03-17T00:47:13.029Z,3.11
2019-03-17T00:49:41.389Z,3.13
2019-03-17T00:52:09.817Z,3.09
2019-03-17T00:54:38.325Z,3.08
2019-03-17T01:16:47.541Z,3.05
2019-03-17T01:19:34.615Z,3.00
2019-03-17T01:22:13.501Z,2.97
2019-03-17T01:37:21.831Z,2.81
2019-03-17T01:49:58.057Z,2.66
2019-03-17T02:12:46.623Z,2.61
2019-03-17T02:23:50.571Z,2.50
2019-03-17T02:35:39.551Z,2.34
2019-03-17T03:00:05.064Z,2.06
2019-03-17T03:03:26.383Z,2.10
2019-03-17T03:07:09.825Z,2.10
2019-03-17T03:22:16.043Z,1.98
2019-03-17T03:44:46.752Z,1.79
2019-03-17T03:47:15.257Z,1.78
2019-03-17T03:49:43.773Z,1.82
2019-03-17T03:52:12.298Z,1.79
2019-03-17T03:54:41.636Z,1.75
2019-03-17T03:57:10.446Z,1.78
2019-03-17T03:59:38.897Z,1.79
2019-03-17T04:02:07.429Z,1.79
2019-03-17T04:04:36.059Z,1.81
2019-03-17T04:07:04.531Z,1.80
2019-03-17T04:09:33.009Z,1.79
2019-03-17T04:12:01.426Z,1.77
2019-03-17T04:14:29.815Z,1.79
2019-03-17T04:16:58.230Z,1.78
2019-03-17T04:19:26.682Z,1.77
2019-03-17T04:21:55.140Z,1.78
2019-03-17T04:24:23.617Z,1.79
2019-03-17T04:26:51.981Z,1.80
2019-03-17T04:29:20.370Z,1.77
2019-03-17T04:31:48.812Z,1.75
2019-03-17T04:34:17.168Z,1.70
2019-03-17T04:36:45.706Z,1.64
2019-03-17T04:39:14.151Z,1.54
2019-03-17T04:41:42.563Z,1.52
2019-03-17T04:44:20.379Z,1.48
2019-03-17T04:46:41.392Z,1.42
2019-03-17T04:49:09.808Z,1.33
2019-03-17T04:51:38.233Z,1.26
2019-03-17T04:54:06.721Z,1.25
2019-03-17T04:56:35.052Z,1.24
2019-03-17T04:59:03.431Z,1.23
2019-03-17T05:01:32.006Z,1.24
2019-03-17T05:04:00.353Z,1.26
2019-03-17T05:06:28.777Z,1.28
2019-03-17T05:08:57.167Z,1.28
2019-03-17T05:11:25.503Z,1.29
2019-03-17T05:13:53.979Z,1.31
2019-03-17T05:16:22.518Z,1.31
2019-03-17T05:18:50.902Z,1.31
2019-03-17T05:21:19.429Z,1.29
2019-03-17T05:23:47.976Z,1.29
2019-03-17T05:26:16.352Z,1.28
2019-03-17T05:28:44.844Z,1.22
2019-03-17T05:31:13.175Z,1.19
2019-03-17T05:33:41.682Z,1.17
2019-03-17T05:36:10.086Z,1.13
2019-03-17T05:38:38.669Z,1.13
2019-03-17T05:41:07.035Z,1.13
2019-03-17T05:43:35.551Z,1.10
2019-03-17T05:46:04.031Z,1.08
2019-03-17T05:48:32.529Z,1.10
2019-03-17T05:51:01.091Z,1.12
2019-03-17T05:53:29.479Z,1.11
2019-03-17T05:55:58.033Z,1.09
2019-03-17T05:58:26.559Z,1.10
2019-03-17T06:00:54.934Z,1.13
2019-03-17T06:03:23.449Z,1.14
2019-03-17T06:05:51.839Z,1.15
2019-03-17T06:08:20.329Z,1.17
2019-03-17T06:10:48.813Z,1.19
2019-03-17T06:13:17.217Z,1.22
2019-03-17T06:15:45.709Z,1.30
2019-03-17T06:18:14.085Z,1.34
2019-03-17T06:20:42.701Z,1.38
2019-03-17T06:23:11.114Z,1.45
2019-03-17T06:25:39.591Z,1.51
2019-03-17T06:28:08.021Z,1.57
2019-03-17T06:30:36.568Z,1.65
2019-03-17T06:33:05.061Z,1.67
2019-03-17T06:35:33.432Z,1.65
2019-03-17T06:38:01.871Z,1.65
2019-03-17T06:40:30.442Z,1.68
2019-03-17T06:42:58.925Z,1.74
2019-03-17T06:45:27.348Z,1.77
2019-03-17T06:47:55.865Z,1.79
2019-03-17T06:50:24.255Z,1.85
2019-03-17T06:52:53.629Z,1.96
2019-03-17T06:55:22.298Z,2.17
2019-03-17T06:57:50.787Z,2.31
2019-03-17T07:00:19.162Z,2.39
2019-03-17T07:02:47.586Z,2.50
2019-03-17T07:05:15.891Z,2.57
2019-03-17T07:07:44.899Z,2.68
2019-03-17T07:10:13.340Z,2.83
2019-03-17T07:12:41.732Z,2.94
2019-03-17T07:15:11.382Z,3.06
2019-03-17T07:17:39.802Z,3.18
2019-03-17T07:20:15.400Z,3.30
2019-03-17T07:22:43.789Z,3.39
2019-03-17T07:25:12.353Z,3.52
2019-03-17T07:27:40.757Z,3.68
2019-03-17T07:30:17.532Z,-0.15
2019-03-17T07:32:45.913Z,4.01
2019-03-17T07:35:14.408Z,4.18
2019-03-17T07:37:55.868Z,4.35
2019-03-17T07:40:14.939Z,4.53
2019-03-17T07:42:43.264Z,4.71
2019-03-17T07:45:12.251Z,4.92
2019-03-17T07:47:40.559Z,5.08
2019-03-17T07:50:13.156Z,5.24
2019-03-17T07:52:41.575Z,5.42
2019-03-17T07:55:10.549Z,5.72
2019-03-17T07:57:38.884Z,6.10
2019-03-17T08:00:11.728Z,6.44
2019-03-17T08:02:40.006Z,6.71
2019-03-17T08:05:09.571Z,6.99
2019-03-17T08:07:37.865Z,7.34
2019-03-17T08:10:09.447Z,7.69
2019-03-17T08:12:37.714Z,8.13
2019-03-17T08:15:08.730Z,8.51
2019-03-17T08:17:37.025Z,8.89
2019-03-17T08:20:06.929Z,9.50
2019-03-17T08:22:35.182Z,10.11
2019-03-17T08:25:03.931Z,10.43
2019-03-17T08:27:32.196Z,10.70
2019-03-17T08:30:00.448Z,11.05
2019-03-17T08:32:28.791Z,11.39
2019-03-17T08:34:57.063Z,11.71
2019-03-17T08:37:25.314Z,11.98
2019-03-17T08:39:53.571Z,12.28
2019-03-17T08:42:21.840Z,12.49
2019-03-17T08:44:50.092Z,12.71
2019-03-17T08:47:18.381Z,13.03
2019-03-17T08:49:46.640Z,13.29
2019-03-17T08:52:16.576Z,13.50
2019-03-17T08:54:44.847Z,13.73
2019-03-17T08:57:13.096Z,13.94
2019-03-17T08:59:41.350Z,14.18
2019-03-17T09:02:09.637Z,14.49
2019-03-17T09:04:37.927Z,14.61
2019-03-17T09:07:06.184Z,14.80
2019-03-17T09:09:34.458Z,15.01
2019-03-17T09:12:02.713Z,15.18
2019-03-17T09:14:30.965Z,15.34
2019-03-17T09:16:59.241Z,15.51
2019-03-17T09:19:27.490Z,15.68
2019-03-17T09:21:55.824Z,15.89
2019-03-17T09:24:24.101Z,16.12
2019-03-17T09:26:52.349Z,16.39
2019-03-17T09:29:20.630Z,16.61
2019-03-17T09:31:48.879Z,16.87
2019-03-17T09:34:17.153Z,17.11
2019-03-17T09:36:45.476Z,17.32
2019-03-17T09:39:13.791Z,17.28
2019-03-17T09:41:42.008Z,17.38
2019-03-17T09:44:10.261Z,17.52
2019-03-17T09:46:38.545Z,17.74
2019-03-17T09:49:06.830Z,17.91
2019-03-17T09:51:35.093Z,17.98
2019-03-17T09:54:03.415Z,17.34
2019-03-17T09:56:31.730Z,18.04
2019-03-17T09:58:59.996Z,18.08
2019-03-17T10:01:28.264Z,18.20
2019-03-17T10:03:56.529Z,18.40
2019-03-17T10:06:24.795Z,18.63
2019-03-17T10:09:00.083Z,18.69
2019-03-17T10:11:23.772Z,18.31
2019-03-17T10:13:52.040Z,18.30
2019-03-17T10:16:20.299Z,18.43
2019-03-17T10:18:48.543Z,18.45
2019-03-17T10:21:16.827Z,18.54
2019-03-17T10:23:45.081Z,18.65
2019-03-17T10:26:13.650Z,18.90
2019-03-17T10:28:41.902Z,19.15
2019-03-17T10:31:10.145Z,19.44
2019-03-17T10:33:40.295Z,19.76
2019-03-17T10:36:09.012Z,20.04
2019-03-17T10:38:37.585Z,20.06
2019-03-17T10:41:06.256Z,19.95
2019-03-17T10:43:34.778Z,19.73
2019-03-17T10:46:03.390Z,19.61
2019-03-17T10:48:31.955Z,19.60
2019-03-17T10:51:03.084Z,19.48
2019-03-17T10:53:31.340Z,19.30
2019-03-17T10:55:59.602Z,19.22
2019-03-17T10:58:27.881Z,19.06
2019-03-17T11:00:56.450Z,19.16
2019-03-17T11:03:25.037Z,19.38
2019-03-17T11:05:54.480Z,19.62
2019-03-17T11:08:23.231Z,19.66
2019-03-17T11:10:51.628Z,19.77
2019-03-17T11:13:19.905Z,19.70
2019-03-17T11:16:05.282Z,19.22
2019-03-17T11:18:33.687Z,19.01
2019-03-17T11:21:01.933Z,18.92
2019-03-17T11:23:30.204Z,18.88
2019-03-17T11:25:58.434Z,18.89
2019-03-17T11:28:26.698Z,17.14
2019-03-17T11:30:58.772Z,18.81
2019-03-17T11:33:27.113Z,18.80
2019-03-17T11:35:55.434Z,18.90
2019-03-17T11:38:23.731Z,19.03
2019-03-17T11:40:52.065Z,19.00
2019-03-17T11:43:20.318Z,18.95
2019-03-17T11:45:50.647Z,18.87
2019-03-17T11:48:18.546Z,18.64
2019-03-17T11:50:48.462Z,18.49
2019-03-17T11:53:19.834Z,18.48
2019-03-17T12:02:00.690Z,18.47
2019-03-17T12:04:28.631Z,18.49
2019-03-17T12:06:56.915Z,18.54
2019-03-17T12:09:29.322Z,18.55
2019-03-17T12:11:55.170Z,18.57
2019-03-17T12:14:23.482Z,18.56
2019-03-17T12:16:51.745Z,18.61
2019-03-17T12:19:20.008Z,18.59
2019-03-17T12:21:48.437Z,18.44
2019-03-17T12:24:16.694Z,18.43
2019-03-17T12:26:44.945Z,18.33
2019-03-17T12:29:13.206Z,18.23
2019-03-17T12:31:41.455Z,18.00
2019-03-17T12:34:09.725Z,18.12
2019-03-17T12:36:38.083Z,18.00
2019-03-17T12:39:06.936Z,17.90
2019-03-17T12:41:38.114Z,17.84
2019-03-17T12:44:05.247Z,17.73
2019-03-17T12:46:34.612Z,17.67
2019-03-17T12:49:02.901Z,17.62
2019-03-17T12:51:31.151Z,17.63
2019-03-17T12:53:59.409Z,17.64
2019-03-17T12:56:27.676Z,17.53
2019-03-17T12:58:55.930Z,17.38
2019-03-17T13:01:25.942Z,17.33
2019-03-17T13:03:54.196Z,17.25
2019-03-17T13:06:22.449Z,17.23
2019-03-17T13:08:50.725Z,17.21
2019-03-17T13:11:18.989Z,17.27
2019-03-17T13:13:47.249Z,17.37
2019-03-17T13:16:33.684Z,17.46
2019-03-17T13:19:01.930Z,17.59
2019-03-17T13:21:30.197Z,17.73
2019-03-17T13:23:58.521Z,17.81
2019-03-17T13:26:26.783Z,17.87
2019-03-17T13:28:55.061Z,17.96
2019-03-17T13:31:23.320Z,18.04
2019-03-17T13:33:57.887Z,18.07
2019-03-17T13:36:26.140Z,18.12
2019-03-17T13:38:54.407Z,18.13
2019-03-17T13:41:22.807Z,18.13
2019-03-17T13:43:51.074Z,18.10
2019-03-17T13:46:19.380Z,18.04
2019-03-17T13:48:47.603Z,17.99
2019-03-17T13:51:15.884Z,17.99
2019-03-17T13:53:44.129Z,18.03
2019-03-17T13:56:12.389Z,18.06
2019-03-17T13:58:40.649Z,18.08
2019-03-17T14:01:08.906Z,18.04
2019-03-17T14:03:37.155Z,18.07
2019-03-17T14:06:05.401Z,18.12
2019-03-17T14:08:33.677Z,18.09
2019-03-17T14:11:02.075Z,18.08
2019-03-17T14:13:30.557Z,18.11
2019-03-17T14:15:58.827Z,18.07
2019-03-17T14:18:27.094Z,18.05
2019-03-17T14:20:55.355Z,18.03
2019-03-17T14:23:24.522Z,18.02
2019-03-17T14:25:52.775Z,17.96
2019-03-17T14:28:21.030Z,17.81
2019-03-17T14:30:49.297Z,17.72
2019-03-17T14:33:17.569Z,17.70
2019-03-17T14:35:45.878Z,17.73
2019-03-17T14:38:14.176Z,17.71
2019-03-17T14:40:52.892Z,17.72
2019-03-17T14:43:12.417Z,17.61
2019-03-17T14:45:40.668Z,17.45
2019-03-17T14:48:08.925Z,17.36
2019-03-17T14:50:37.177Z,17.27
2019-03-17T14:53:05.430Z,17.22
2019-03-17T14:55:33.686Z,17.15
2019-03-17T14:58:01.987Z,17.13
2019-03-17T15:00:30.316Z,17.10
2019-03-17T15:02:58.569Z,17.01
2019-03-17T15:05:26.849Z,16.90
2019-03-17T15:07:55.102Z,16.84
2019-03-17T15:10:24.491Z,16.76
2019-03-17T15:12:52.749Z,16.77
2019-03-17T15:15:21.942Z,16.62
2019-03-17T15:17:50.220Z,16.49
2019-03-17T15:20:20.714Z,16.44
2019-03-17T15:22:48.992Z,16.43
2019-03-17T15:25:17.278Z,16.36
2019-03-17T15:27:45.510Z,16.29
2019-03-17T15:30:30.319Z,16.27
2019-03-17T15:32:58.597Z,16.29
2019-03-17T15:35:26.857Z,16.32
2019-03-17T15:37:55.104Z,16.32
2019-03-17T15:40:23.360Z,16.23
2019-03-17T15:42:51.622Z,16.12
2019-03-17T15:45:21.135Z,16.06
2019-03-17T15:47:49.396Z,15.97
2019-03-17T15:50:21.884Z,15.92
2019-03-17T15:52:50.140Z,15.87
2019-03-17T15:55:18.414Z,15.58
2019-03-17T15:57:46.683Z,15.06
2019-03-17T16:00:25.115Z,14.83
2019-03-17T16:02:47.672Z,14.67
2019-03-17T16:05:15.892Z,14.48
2019-03-17T16:07:44.167Z,14.19
2019-03-17T16:10:21.401Z,13.93
2019-03-17T16:12:49.672Z,13.83
2019-03-17T16:15:18.106Z,13.41
2019-03-17T16:17:46.387Z,12.97
2019-03-17T16:20:19.805Z,12.45
2019-03-17T16:22:48.095Z,12.00
2019-03-17T16:25:21.030Z,11.57
2019-03-17T16:27:49.307Z,11.22
2019-03-17T16:30:30.875Z,10.91
2019-03-17T16:32:59.126Z,10.76
2019-03-17T16:35:27.384Z,10.32
2019-03-17T16:37:55.718Z,10.08
2019-03-17T16:40:26.303Z,9.93
2019-03-17T16:42:54.543Z,9.76
2019-03-17T16:45:22.812Z,9.44
2019-03-17T16:47:51.094Z,9.30
2019-03-17T16:50:23.306Z,9.28
2019-03-17T16:52:51.622Z,9.29
2019-03-17T16:55:19.876Z,9.35
2019-03-17T16:57:48.125Z,9.24
2019-03-17T17:00:19.313Z,9.13
2019-03-17T17:02:48.345Z,9.12
2019-03-17T17:05:20.391Z,9.08
2019-03-17T17:07:48.659Z,7.37
2019-03-17T17:10:24.546Z,8.96
2019-03-17T17:12:52.790Z,8.92
2019-03-17T17:15:28.975Z,8.90
2019-03-17T17:17:57.221Z,8.69
2019-03-17T17:20:34.608Z,8.64
2019-03-17T17:23:02.867Z,8.56
2019-03-17T17:25:31.119Z,8.45
2019-03-17T17:27:59.377Z,8.43
2019-03-17T17:30:27.623Z,8.45
2019-03-17T17:32:55.934Z,8.41
2019-03-17T17:35:24.213Z,8.42
2019-03-17T17:37:52.455Z,8.45
2019-03-17T17:40:22.711Z,8.45
2019-03-17T17:42:50.963Z,8.38
2019-03-17T17:45:22.835Z,8.33
2019-03-17T17:47:51.155Z,8.27
2019-03-17T17:50:21.819Z,8.29
2019-03-17T17:52:50.083Z,8.23
2019-03-17T17:55:18.342Z,8.10
2019-03-17T17:57:46.620Z,8.01
2019-03-17T18:00:32.052Z,7.95
2019-03-17T18:03:00.385Z,7.95
2019-03-17T18:05:28.624Z,7.89
2019-03-17T18:07:57.113Z,7.80
2019-03-17T18:10:25.405Z,7.75
2019-03-17T18:12:53.709Z,7.69
2019-03-17T18:15:24.291Z,7.67
2019-03-17T18:17:52.530Z,7.65
2019-03-17T18:20:20.901Z,7.65
2019-03-17T18:22:49.153Z,7.63
2019-03-17T18:25:18.665Z,7.56
2019-03-17T18:27:46.929Z,7.45
2019-03-17T18:30:18.436Z,7.41
2019-03-17T18:32:46.686Z,7.41
2019-03-17T18:35:14.999Z,7.40
2019-03-17T18:37:43.244Z,7.37
2019-03-17T18:40:13.500Z,7.37
2019-03-17T18:42:41.755Z,7.39
2019-03-17T18:45:19.054Z,7.36
2019-03-17T18:47:47.312Z,7.31
2019-03-17T18:50:20.683Z,7.28
2019-03-17T18:52:45.649Z,7.23
2019-03-17T18:55:14.943Z,7.24
2019-03-17T18:57:43.199Z,7.19
2019-03-17T19:00:14.746Z,7.20
2019-03-17T19:02:43.000Z,7.22
2019-03-17T19:05:19.370Z,7.18
2019-03-17T19:07:46.161Z,7.16
2019-03-17T19:10:22.022Z,7.19
2019-03-17T19:12:50.668Z,7.18
2019-03-17T19:15:22.358Z,7.19
2019-03-17T19:17:50.741Z,7.17
2019-03-17T19:20:19.993Z,7.14
2019-03-17T19:22:48.216Z,7.16
2019-03-17T19:25:18.789Z,7.17
2019-03-17T19:27:47.088Z,7.17
2019-03-17T19:30:19.838Z,7.18
2019-03-17T19:32:48.093Z,7.17
2019-03-17T19:35:17.349Z,7.15
2019-03-17T19:37:45.614Z,7.14
2019-03-17T19:40:16.367Z,7.11
2019-03-17T19:42:57.440Z,7.10
2019-03-17T19:45:14.756Z,7.09
2019-03-17T19:47:43.035Z,7.06
2019-03-17T19:50:16.699Z,6.96
2019-03-17T19:52:48.086Z,6.94
2019-03-17T19:55:16.381Z,6.90
2019-03-17T19:57:44.692Z,6.80
2019-03-17T20:00:17.902Z,6.77
2019-03-17T20:02:47.702Z,6.77
2019-03-17T20:05:16.325Z,6.65
2019-03-17T20:07:44.677Z,6.60
2019-03-17T20:10:18.530Z,6.60
2019-03-17T20:12:46.795Z,6.57
2019-03-17T20:15:15.165Z,6.50
2019-03-17T20:17:43.443Z,6.44
2019-03-17T20:20:13.560Z,6.41
2019-03-17T20:22:41.842Z,6.31
2019-03-17T20:25:10.259Z,6.28
2019-03-17T20:27:38.605Z,6.27
2019-03-17T20:30:14.825Z,6.25
2019-03-17T20:32:43.107Z,6.15
2019-03-17T20:35:12.605Z,6.12
2019-03-17T20:37:40.927Z,6.13
2019-03-17T20:40:11.221Z,6.09
2019-03-17T20:42:39.462Z,6.09
2019-03-17T20:45:09.992Z,6.03
2019-03-17T20:47:38.260Z,6.01
2019-03-17T20:50:09.408Z,5.96
2019-03-17T20:52:39.328Z,5.94
2019-03-17T20:55:09.317Z,5.95
2019-03-17T20:57:37.595Z,5.99
2019-03-17T21:00:11.766Z,6.01
2019-03-17T21:02:40.047Z,6.01
2019-03-17T21:05:09.925Z,5.97
2019-03-17T21:07:38.383Z,5.97
2019-03-17T21:10:09.490Z,5.97
2019-03-17T21:12:37.792Z,6.00
2019-03-17T21:15:09.472Z,6.00
2019-03-17T21:17:37.810Z,6.00
2019-03-17T21:20:11.647Z,5.96
2019-03-17T21:22:40.847Z,5.99
2019-03-17T21:25:09.366Z,5.99
2019-03-17T21:27:37.649Z,5.97
2019-03-17T21:30:18.359Z,5.97
2019-03-17T21:32:46.780Z,5.94
2019-03-17T21:35:15.101Z,5.88
2019-03-17T21:37:43.422Z,5.88
2019-03-17T21:40:12.518Z,5.89
2019-03-17T21:42:40.879Z,5.87
2019-03-17T21:45:12.857Z,5.88
2019-03-17T21:47:41.270Z,5.87
2019-03-17T21:50:21.698Z,5.85
2019-03-17T21:52:50.030Z,5.82
2019-03-17T21:55:19.387Z,5.81
2019-03-17T21:57:49.368Z,5.84
2019-03-17T22:00:20.795Z,5.87
2019-03-17T22:02:49.131Z,5.86
2019-03-17T22:05:17.437Z,5.84
2019-03-17T22:07:50.172Z,5.84
2019-03-17T22:10:19.614Z,5.84
2019-03-17T22:12:47.911Z,5.82
2019-03-17T22:15:17.327Z,5.79
2019-03-17T22:17:45.603Z,5.77
2019-03-17T22:20:14.768Z,5.74
2019-03-17T22:22:43.090Z,5.73
2019-03-17T22:25:16.025Z,5.73
2019-03-17T22:27:44.400Z,5.66
2019-03-17T22:30:19.905Z,5.62
2019-03-17T22:32:48.164Z,5.59
2019-03-17T22:35:16.443Z,5.62
2019-03-17T22:37:44.735Z,5.60
2019-03-17T22:40:18.344Z,5.61
2019-03-17T22:42:46.700Z,5.55
2019-03-17T22:45:15.845Z,5.52
2019-03-17T22:47:44.212Z,5.53
2019-03-17T22:50:13.719Z,5.52
2019-03-17T22:52:41.991Z,5.47
2019-03-17T22:55:10.317Z,5.48
2019-03-17T22:57:38.602Z,5.48
2019-03-17T23:00:17.515Z,5.48
2019-03-17T23:02:45.829Z,5.47
2019-03-17T23:05:14.114Z,5.49
2019-03-17T23:07:42.463Z,5.48
2019-03-17T23:10:11.813Z,5.47
2019-03-17T23:12:40.100Z,5.49
2019-03-17T23:15:11.078Z,5.49
2019-03-17T23:17:39.396Z,5.51
2019-03-17T23:20:12.642Z,5.50
2019-03-17T23:22:40.947Z,5.50
2019-03-17T23:25:10.146Z,5.53
2019-03-17T23:27:38.437Z,5.49
2019-03-17T23:30:14.909Z,5.52
2019-03-17T23:32:43.288Z,5.53
2019-03-17T23:35:11.641Z,5.56
2019-03-17T23:37:39.966Z,5.56
2019-03-17T23:40:10.011Z,5.58
2019-03-17T23:42:38.358Z,4.40
2019-03-17T23:45:09.002Z,5.58
2019-03-17T23:47:37.384Z,5.58
2019-03-17T23:50:08.607Z,5.56
2019-03-17T23:52:36.933Z,5.55
2019-03-17T23:55:06.731Z,5.52
2019-03-17T23:57:35.077Z,5.51
